createdAt,value
2016-11-13T09:20:31.784Z,10237
2016-11-13T09:20:44.831Z,10229
2016-11-13T09:21:00.374Z,10314
2016-11-13T09:21:15.625Z,10323
2016-11-13T09:21:28.221Z,10350
2016-11-13T09:21:46.445Z,10376
2016-11-13T09:22:04.811Z,10402
2016-11-13T09:22:17.069Z,10396
2016-11-13T09:22:32.500Z,10413
2016-11-13T09:22:47.849Z,10405
2016-11-13T09:23:00.183Z,10439
2016-11-13T09:23:18.467Z,10464
2016-11-13T09:23:30.868Z,10405
2016-11-13T09:23:46.168Z,10489
2016-11-13T09:24:04.362Z,10481
2016-11-13T09:24:22.495Z,10490
2016-11-13T09:24:40.803Z,10499
2016-11-13T09:24:59.148Z,10509
2016-11-13T09:25:11.736Z,10535
2016-11-13T09:25:27.159Z,10501
2016-11-13T09:25:42.652Z,10544
2016-11-13T09:25:55.053Z,10578
2016-11-13T09:26:10.204Z,10561
2016-11-13T09:26:28.483Z,10553
2016-11-13T09:26:46.671Z,10553
2016-11-13T09:27:07.849Z,10544
2016-11-13T09:27:26.098Z,10532
2016-11-13T09:27:44.314Z,10489
2016-11-13T09:27:56.705Z,10432
2016-11-13T09:28:12.108Z,10419
2016-11-13T09:28:27.409Z,10446
2016-11-13T09:28:45.765Z,10488
2016-11-13T09:29:03.994Z,10572
2016-11-13T09:29:19.329Z,10594
2016-11-13T09:29:34.724Z,10621
2016-11-13T09:29:58.798Z,10624
2016-11-13T09:30:20.079Z,10643
2016-11-13T09:30:32.611Z,10651
2016-11-13T09:30:45.008Z,10634
2016-11-13T09:30:57.637Z,10634
2016-11-13T09:31:18.866Z,10635
2016-11-13T09:31:34.404Z,10643
2016-11-13T09:31:47.061Z,10643
2016-11-13T09:32:02.395Z,10635
2016-11-13T09:32:17.773Z,10661
2016-11-13T09:32:33.187Z,10653
2016-11-13T09:32:45.664Z,10653
2016-11-13T09:33:01.084Z,10619
2016-11-13T09:33:19.410Z,10653
2016-11-13T09:33:37.505Z,10653
2016-11-13T09:33:55.727Z,10653
2016-11-13T09:34:11.091Z,10629
2016-11-13T09:34:23.638Z,10646
2016-11-13T09:34:39.122Z,10655
2016-11-13T09:35:00.263Z,10590
2016-11-13T09:35:18.329Z,10554
2016-11-13T09:35:33.744Z,10564
2016-11-13T09:35:49.260Z,10554
2016-11-13T09:36:01.793Z,10562
2016-11-13T09:36:17.228Z,10544
2016-11-13T09:36:29.816Z,10544
2016-11-13T09:36:45.133Z,10544
2016-11-13T09:37:00.469Z,10552
2016-11-13T09:37:13.038Z,10589
2016-11-13T09:37:28.403Z,10579
2016-11-13T09:37:40.971Z,10560
2016-11-13T09:38:02.096Z,10542
2016-11-13T09:38:17.438Z,10542
2016-11-13T09:38:29.897Z,10542
2016-11-13T09:38:53.780Z,10550
2016-11-13T09:39:06.349Z,10550
2016-11-13T09:39:21.716Z,10532
2016-11-13T09:39:37.345Z,10550
2016-11-13T09:39:58.495Z,10540
2016-11-13T09:40:16.781Z,10549
2016-11-13T09:40:29.197Z,10530
2016-11-13T09:40:41.665Z,10540
2016-11-13T09:40:56.988Z,10540
2016-11-13T09:41:12.295Z,10530
2016-11-13T09:41:24.890Z,10521
2016-11-13T09:41:37.297Z,10521
2016-11-13T09:41:52.637Z,10539
2016-11-13T09:42:08.069Z,10521
2016-11-13T09:42:23.517Z,10539
2016-11-13T09:42:41.782Z,10529
2016-11-13T09:42:57.049Z,10529
2016-11-13T09:43:12.267Z,10529
2016-11-13T09:43:30.502Z,10509
2016-11-13T09:43:43.235Z,10482
2016-11-13T09:43:55.737Z,10491
2016-11-13T09:44:11.124Z,10509
2016-11-13T09:44:29.419Z,10507
2016-11-13T09:44:47.494Z,10507
2016-11-13T09:45:08.746Z,10526
2016-11-13T09:45:25.420Z,10517
2016-11-13T09:45:43.668Z,10554
2016-11-13T09:45:56.170Z,10572
2016-11-13T09:46:11.451Z,10554
2016-11-13T09:46:26.718Z,10517
2016-11-13T09:46:42.042Z,10526
2016-11-13T09:47:00.416Z,10526
2016-11-13T09:47:15.764Z,10534
2016-11-13T09:47:31.086Z,10524
2016-11-13T09:47:46.566Z,10534
2016-11-13T09:48:01.740Z,10497
2016-11-13T09:48:20.042Z,10479
2016-11-13T09:48:35.295Z,10497
2016-11-13T09:48:53.547Z,10506
2016-11-13T09:49:06.077Z,10506
2016-11-13T09:49:21.404Z,10524
2016-11-13T09:49:36.729Z,10469
2016-11-13T09:49:52.133Z,10469
2016-11-13T09:50:07.604Z,10469
2016-11-13T09:50:28.804Z,10477
2016-11-13T09:50:44.030Z,10422
2016-11-13T09:50:56.673Z,10441
2016-11-13T09:51:09.115Z,10441
2016-11-13T09:51:30.241Z,10449
2016-11-13T09:51:51.518Z,10441
2016-11-13T09:52:03.967Z,10432
2016-11-13T09:52:19.347Z,10451
2016-11-13T09:52:34.660Z,10441
2016-11-13T09:52:47.094Z,10477
2016-11-13T09:53:02.510Z,10504
2016-11-13T09:53:14.972Z,10484
2016-11-13T09:53:27.438Z,10447
2016-11-13T09:53:39.871Z,10447
2016-11-13T09:53:58.087Z,10447
2016-11-13T09:54:10.564Z,10438
2016-11-13T09:54:23.096Z,10456
2016-11-13T09:54:41.273Z,10474
2016-11-13T09:54:57.038Z,10438
2016-11-13T09:55:12.475Z,10457
2016-11-13T09:55:25.013Z,10384
2016-11-13T09:55:43.985Z,10447
2016-11-13T09:55:56.391Z,10457
2016-11-13T09:57:03.823Z,10467
2016-11-13T09:57:16.250Z,10476
2016-11-13T09:57:31.628Z,10514
2016-11-13T09:57:47.086Z,10467
2016-11-13T09:58:02.449Z,10384
2016-11-13T09:58:18.310Z,10439
2016-11-13T09:58:30.560Z,10457
2016-11-13T09:58:48.842Z,10459
2016-11-13T09:59:07.169Z,10476
2016-11-13T09:59:22.557Z,10477
2016-11-13T09:59:37.823Z,10497
2016-11-13T09:59:53.039Z,10454
2016-11-13T10:00:05.653Z,10506
2016-11-13T10:00:18.034Z,10531
2016-11-13T10:00:36.485Z,10521
2016-11-13T10:00:57.557Z,10502
2016-11-13T10:01:12.996Z,10501
2016-11-13T10:01:31.212Z,10501
2016-11-13T10:01:46.628Z,10519
2016-11-13T10:01:59.104Z,10509
2016-11-13T10:02:14.580Z,10528
2016-11-13T10:02:29.773Z,10526
2016-11-13T10:02:50.922Z,10524
2016-11-13T10:03:09.168Z,10515
2016-11-13T10:03:24.566Z,10516
2016-11-13T10:03:43.108Z,10508
2016-11-13T10:03:55.511Z,10508
2016-11-13T10:04:13.729Z,10509
2016-11-13T10:04:29.158Z,10469
2016-11-13T10:04:41.770Z,10440
2016-11-13T10:04:57.121Z,10365
2016-11-13T10:05:18.334Z,10341
2016-11-13T10:05:36.734Z,10357
2016-11-13T10:05:54.834Z,10341
2016-11-13T10:06:10.325Z,10373
2016-11-13T10:06:22.774Z,10354
2016-11-13T10:06:38.039Z,10305
2016-11-13T10:06:50.684Z,10161
2016-11-13T10:07:03.160Z,9992
2016-11-13T10:07:18.485Z,9965
2016-11-13T10:07:30.933Z,10131
2016-11-13T10:07:46.317Z,10263
2016-11-13T10:07:58.724Z,10378
2016-11-13T10:08:14.260Z,10441
2016-11-13T10:08:29.740Z,10458
2016-11-13T10:08:42.266Z,10418
2016-11-13T10:08:57.725Z,10450
2016-11-13T10:09:13.077Z,10464
2016-11-13T10:09:25.565Z,10464
2016-11-13T10:09:46.651Z,10407
2016-11-13T10:10:04.882Z,10470
2016-11-13T10:10:20.156Z,10441
2016-11-13T10:10:32.649Z,10414
2016-11-13T10:10:45.213Z,10470
2016-11-13T10:10:57.663Z,10420
2016-11-13T10:11:10.287Z,10407
2016-11-13T10:11:25.631Z,10388
2016-11-13T10:11:40.965Z,10532
2016-11-13T10:11:56.392Z,10519
2016-11-13T10:12:14.645Z,10536
2016-11-13T10:12:30.073Z,10581
2016-11-13T10:12:48.119Z,10606
2016-11-13T10:13:03.490Z,10641
2016-11-13T10:13:18.659Z,10710
2016-11-13T10:13:34.004Z,10742
2016-11-13T10:13:49.409Z,10730
2016-11-13T10:14:04.911Z,10760
2016-11-13T10:14:23.090Z,10749
2016-11-13T10:14:41.704Z,10765
2016-11-13T10:15:06.447Z,10791
2016-11-13T10:15:22.298Z,10779
2016-11-13T10:15:43.607Z,10804
2016-11-13T10:15:58.890Z,10786
2016-11-13T10:16:11.340Z,10822
2016-11-13T10:16:29.539Z,10858
2016-11-13T10:16:45.100Z,10874
2016-11-13T10:17:03.258Z,10936
2016-11-13T10:17:18.739Z,10945
2016-11-13T10:17:34.093Z,10888
2016-11-13T10:17:46.434Z,10906
2016-11-13T10:18:01.889Z,10851
2016-11-13T10:18:17.350Z,10871
2016-11-13T10:18:32.624Z,10879
2016-11-13T10:18:45.140Z,10834
2016-11-13T10:19:00.637Z,10854
2016-11-13T10:19:12.975Z,10819
2016-11-13T10:19:25.628Z,10799
2016-11-13T10:19:38.243Z,10834
2016-11-13T10:19:53.464Z,10806
2016-11-13T10:20:11.653Z,10824
2016-11-13T10:20:24.023Z,10789
2016-11-13T10:20:39.373Z,10729
2016-11-13T10:20:54.786Z,10704
2016-11-13T10:21:07.418Z,10697
2016-11-13T10:21:22.731Z,10744
2016-11-13T10:21:44.057Z,10730
2016-11-13T10:21:59.401Z,10702
2016-11-13T10:22:14.633Z,10674
2016-11-13T10:22:35.989Z,10690
2016-11-13T10:22:54.419Z,10701
2016-11-13T10:23:09.657Z,10723
2016-11-13T10:23:25.003Z,10758
2016-11-13T10:23:43.188Z,10719
2016-11-13T10:23:55.639Z,10738
2016-11-13T10:24:11.059Z,10783
2016-11-13T10:24:26.540Z,10761
2016-11-13T10:24:41.867Z,10750
2016-11-13T10:24:57.280Z,10767
2016-11-13T10:25:09.909Z,10767
2016-11-13T10:25:22.370Z,10778
2016-11-13T10:25:40.737Z,10738
2016-11-13T10:25:59.027Z,10716
2016-11-13T10:26:11.517Z,10676
2016-11-13T10:26:29.780Z,10709
2016-11-13T10:26:45.138Z,10741
2016-11-13T10:27:00.518Z,10740
2016-11-13T10:27:18.287Z,10720
2016-11-13T10:27:36.412Z,10765
2016-11-13T10:27:55.121Z,10755
2016-11-13T10:28:08.686Z,10735
2016-11-13T10:28:24.011Z,10725
2016-11-13T10:28:39.434Z,10725
2016-11-13T10:28:52.034Z,10743
2016-11-13T10:29:13.212Z,10725
2016-11-13T10:29:28.552Z,10707
2016-11-13T10:29:50.442Z,10725
2016-11-13T10:30:13.948Z,10703
2016-11-13T10:30:29.354Z,10749
2016-11-13T10:30:44.953Z,10765
2016-11-13T10:30:57.480Z,10774
2016-11-13T10:31:17.904Z,10794
2016-11-13T10:31:33.308Z,10784
2016-11-13T10:31:48.645Z,10820
2016-11-13T10:32:04.177Z,10827
2016-11-13T10:32:16.926Z,10837
2016-11-13T10:32:36.507Z,10809
2016-11-13T10:32:58.137Z,10817
2016-11-13T10:33:11.813Z,10824
2016-11-13T10:33:27.915Z,10859
2016-11-13T10:33:43.627Z,10876
2016-11-13T10:33:56.302Z,10866
2016-11-13T10:34:12.724Z,10901
2016-11-13T10:34:28.739Z,10889
2016-11-13T10:34:47.167Z,10924
2016-11-13T10:35:03.158Z,10908
2016-11-13T10:35:24.937Z,10888
2016-11-13T10:35:37.520Z,10896
2016-11-13T10:35:51.598Z,10888
2016-11-13T10:36:13.729Z,10878
2016-11-13T10:36:33.268Z,10878
2016-11-13T10:36:58.118Z,10876
2016-11-13T10:37:15.370Z,10913
2016-11-13T10:37:31.071Z,10913
2016-11-13T10:37:50.387Z,10876
2016-11-13T10:38:04.196Z,10903
2016-11-13T10:38:21.984Z,10911
2016-11-13T10:38:37.658Z,10875
2016-11-13T10:38:50.338Z,10856
2016-11-13T10:39:09.248Z,10866
2016-11-13T10:39:24.694Z,10848
2016-11-13T10:39:43.515Z,10838
2016-11-13T10:39:59.048Z,10873
2016-11-13T10:40:14.305Z,10880
2016-11-13T10:40:29.670Z,10861
2016-11-13T10:40:47.966Z,10873
2016-11-13T10:41:06.173Z,10918
2016-11-13T10:41:18.718Z,10908
2016-11-13T10:41:34.231Z,10926
2016-11-13T10:41:49.524Z,10933
2016-11-13T10:42:04.735Z,10952
2016-11-13T10:42:23.013Z,10922
2016-11-13T10:42:38.479Z,10975
2016-11-13T10:42:50.892Z,10945
2016-11-13T10:43:03.418Z,10945
2016-11-13T10:43:18.531Z,10935
2016-11-13T10:43:33.885Z,10990
2016-11-13T10:43:52.197Z,10935
2016-11-13T10:44:09.578Z,10906
2016-11-13T10:44:27.675Z,10920
2016-11-13T10:44:46.021Z,10908
2016-11-13T10:45:02.733Z,10898
2016-11-13T10:45:24.583Z,10857
2016-11-13T10:45:45.808Z,10878
2016-11-13T10:46:01.270Z,10895
2016-11-13T10:46:17.132Z,10945
2016-11-13T10:46:32.463Z,10917
2016-11-13T10:46:53.640Z,10890
2016-11-13T10:47:14.886Z,10932
2016-11-13T10:47:30.877Z,10953
2016-11-13T10:47:46.539Z,10958
2016-11-13T10:48:02.452Z,10967
2016-11-13T10:48:20.837Z,10895
2016-11-13T10:48:36.233Z,10930
2016-11-13T10:48:57.459Z,10938
2016-11-13T10:49:13.035Z,10935
2016-11-13T10:49:31.461Z,10960
2016-11-13T10:49:46.812Z,10942
2016-11-13T10:50:02.476Z,10969
2016-11-13T10:50:17.947Z,10957
2016-11-13T10:50:33.303Z,10992
2016-11-13T10:50:54.389Z,11019
2016-11-13T10:51:09.883Z,11011
2016-11-13T10:51:28.362Z,11011
2016-11-13T10:51:43.827Z,11006
2016-11-13T10:52:05.219Z,11042
2016-11-13T10:52:20.693Z,11024
2016-11-13T10:52:41.959Z,11017
2016-11-13T10:52:54.662Z,10997
2016-11-13T10:53:10.071Z,11024
2016-11-13T10:53:25.643Z,11004
2016-11-13T10:53:44.171Z,10926
2016-11-13T10:54:02.395Z,10922
2016-11-13T10:54:14.996Z,10894
2016-11-13T10:54:30.551Z,10899
2016-11-13T10:54:46.137Z,10966
2016-11-13T10:54:58.643Z,10967
2016-11-13T10:55:14.156Z,10976
2016-11-13T10:55:29.428Z,11038
2016-11-13T10:55:47.970Z,11008
2016-11-13T10:56:00.688Z,11033
2016-11-13T10:56:13.133Z,11060
2016-11-13T10:56:31.303Z,11053
2016-11-13T10:56:46.808Z,11019
2016-11-13T10:57:02.215Z,10986
2016-11-13T10:57:17.863Z,10986
2016-11-13T10:57:36.337Z,10957
2016-11-13T10:57:51.647Z,10946
2016-11-13T10:58:07.156Z,10944
2016-11-13T10:58:22.512Z,10912
2016-11-13T10:58:35.232Z,10870
2016-11-13T10:58:47.896Z,10837
2016-11-13T10:59:09.196Z,10880
2016-11-13T10:59:27.480Z,10824
2016-11-13T10:59:40.096Z,10877
2016-11-13T10:59:58.504Z,10899
2016-11-13T11:00:19.745Z,10845
2016-11-13T11:00:32.381Z,10847
2016-11-13T11:00:47.806Z,10867
2016-11-13T11:01:00.422Z,10872
2016-11-13T11:01:16.049Z,10956
2016-11-13T11:01:34.462Z,11020
2016-11-13T11:01:55.726Z,11060
2016-11-13T11:02:08.337Z,11070
2016-11-13T11:02:26.639Z,11053
2016-11-13T11:02:45.061Z,11043
2016-11-13T11:03:00.615Z,11015
2016-11-13T11:03:24.877Z,11028
2016-11-13T11:03:40.150Z,11070
2016-11-13T11:03:52.863Z,11087
2016-11-13T11:04:14.052Z,11094
2016-11-13T11:04:29.541Z,11102
2016-11-13T11:04:50.805Z,11109
2016-11-13T11:05:06.162Z,11144
2016-11-13T11:05:21.577Z,11152
2016-11-13T11:05:34.176Z,11161
2016-11-13T11:05:52.613Z,11082
2016-11-13T11:06:08.109Z,11034
2016-11-13T11:06:26.904Z,10915
2016-11-13T11:06:42.371Z,10923
2016-11-13T11:06:57.760Z,10931
2016-11-13T11:07:10.269Z,10957
2016-11-13T11:07:25.676Z,10941
2016-11-13T11:07:41.118Z,10945
2016-11-13T11:07:56.680Z,10931
2016-11-13T11:08:11.913Z,10921
2016-11-13T11:08:30.030Z,10936
2016-11-13T11:08:45.665Z,10946
2016-11-13T11:09:07.139Z,11001
2016-11-13T11:09:22.624Z,11005
2016-11-13T11:09:35.128Z,11038
2016-11-13T11:09:50.597Z,10980
2016-11-13T11:10:05.983Z,10970
2016-11-13T11:10:21.531Z,11012
2016-11-13T11:10:42.897Z,10949
2016-11-13T11:10:58.367Z,10937
2016-11-13T11:11:10.910Z,10951
2016-11-13T11:11:23.398Z,11008
2016-11-13T11:11:38.778Z,11059
2016-11-13T11:11:54.480Z,11040
2016-11-13T11:12:10.124Z,11120
2016-11-13T11:12:25.514Z,11091
2016-11-13T11:12:38.180Z,11163
2016-11-13T11:12:56.417Z,11145
2016-11-13T11:13:14.756Z,11116
2016-11-13T11:13:30.246Z,11133
2016-11-13T11:13:45.809Z,11198
2016-11-13T11:13:58.354Z,11242
2016-11-13T11:14:13.869Z,11315
2016-11-13T11:14:29.304Z,11158
2016-11-13T11:14:44.936Z,11115
2016-11-13T11:15:00.532Z,11168
2016-11-13T11:15:22.045Z,11073
2016-11-13T11:15:40.345Z,11046
2016-11-13T11:15:58.872Z,11063
2016-11-13T11:16:17.345Z,11025
2016-11-13T11:16:32.635Z,11020
2016-11-13T11:16:48.149Z,10991
2016-11-13T11:17:00.892Z,10991
2016-11-13T11:17:16.249Z,11011
2016-11-13T11:17:38.679Z,11118
2016-11-13T11:17:51.321Z,11146
2016-11-13T11:18:06.652Z,11133
2016-11-13T11:18:22.207Z,11145
2016-11-13T11:18:37.815Z,11175
2016-11-13T11:18:56.181Z,11083
2016-11-13T11:19:14.462Z,11138
2016-11-13T11:19:27.110Z,11146
2016-11-13T11:19:42.643Z,11101
2016-11-13T11:19:55.370Z,11038
2016-11-13T11:20:08.046Z,11058
2016-11-13T11:20:23.466Z,10933
2016-11-13T11:20:39.046Z,10996
2016-11-13T11:20:57.368Z,10961
2016-11-13T11:21:12.728Z,10934
2016-11-13T11:21:28.238Z,10961
2016-11-13T11:21:43.875Z,11041
2016-11-13T11:22:05.132Z,11110
2016-11-13T11:22:23.324Z,11065
2016-11-13T11:22:41.629Z,11051
2016-11-13T11:22:57.061Z,11059
2016-11-13T11:23:09.900Z,11059
2016-11-13T11:23:25.523Z,11051
2016-11-13T11:23:38.148Z,11091
2016-11-13T11:23:53.757Z,11090
2016-11-13T11:24:09.258Z,11071
2016-11-13T11:24:21.618Z,11051
2016-11-13T11:24:40.085Z,11050
2016-11-13T11:24:58.383Z,11035
2016-11-13T11:25:16.722Z,11043
2016-11-13T11:25:29.439Z,11138
2016-11-13T11:25:47.696Z,11038
2016-11-13T11:26:00.261Z,11024
2016-11-13T11:26:15.866Z,10989
2016-11-13T11:26:28.356Z,10962
2016-11-13T11:26:41.023Z,10954
2016-11-13T11:26:59.509Z,10972
2016-11-13T11:27:12.105Z,10951
2016-11-13T11:27:30.361Z,10912
2016-11-13T11:27:48.601Z,10942
2016-11-13T11:28:04.064Z,10947
2016-11-13T11:28:22.463Z,10951
2016-11-13T11:28:40.829Z,11001
2016-11-13T11:28:56.266Z,11041
2016-11-13T11:29:14.684Z,11098
2016-11-13T11:29:32.978Z,11145
2016-11-13T11:29:51.288Z,11108
2016-11-13T11:30:06.993Z,11149
2016-11-13T11:30:25.298Z,11129
2016-11-13T11:30:37.745Z,11129
2016-11-13T11:30:56.071Z,11139
2016-11-13T11:31:14.393Z,11074
2016-11-13T11:31:29.706Z,11110
2016-11-13T11:31:42.482Z,11057
2016-11-13T11:32:01.007Z,11062
2016-11-13T11:32:13.403Z,11065
2016-11-13T11:32:25.914Z,11057
2016-11-13T11:32:41.247Z,11058
2016-11-13T11:32:56.734Z,11043
2016-11-13T11:33:14.954Z,11046
2016-11-13T11:33:33.294Z,11060
2016-11-13T11:33:48.553Z,11073
2016-11-13T11:34:04.012Z,11048
2016-11-13T11:34:19.472Z,11040
2016-11-13T11:34:34.792Z,11068
2016-11-13T11:34:50.252Z,11026
2016-11-13T11:35:05.644Z,10951
2016-11-13T11:35:21.137Z,10926
2016-11-13T11:35:45.321Z,10964
2016-11-13T11:36:00.921Z,11024
2016-11-13T11:36:16.229Z,11096
2016-11-13T11:36:34.560Z,11004
2016-11-13T11:36:47.291Z,10996
2016-11-13T11:37:05.677Z,11021
2016-11-13T11:37:18.113Z,11029
2016-11-13T11:37:30.592Z,11031
2016-11-13T11:37:46.024Z,10971
2016-11-13T11:38:07.254Z,10981
2016-11-13T11:38:19.713Z,10978
2016-11-13T11:38:35.200Z,11015
2016-11-13T11:38:53.401Z,11002
2016-11-13T11:39:06.157Z,11018
2016-11-13T11:39:24.443Z,11009
2016-11-13T11:39:45.706Z,11061
2016-11-13T11:40:01.153Z,11120
2016-11-13T11:40:22.522Z,11043
2016-11-13T11:40:38.223Z,11028
2016-11-13T11:40:58.262Z,11030
2016-11-13T11:41:21.108Z,10996
2016-11-13T11:41:33.692Z,11015
2016-11-13T11:41:46.421Z,11033
2016-11-13T11:42:07.511Z,10986
2016-11-13T11:42:20.196Z,11005
2016-11-13T11:42:35.736Z,11013
2016-11-13T11:42:51.096Z,11000
2016-11-13T11:43:06.556Z,11032
2016-11-13T11:43:24.943Z,11089
2016-11-13T11:43:40.453Z,11132
2016-11-13T11:43:58.724Z,11097
2016-11-13T11:44:14.232Z,11097
2016-11-13T11:44:32.527Z,11087
2016-11-13T11:44:50.907Z,11104
2016-11-13T11:45:12.031Z,11156
2016-11-13T11:45:28.369Z,11154
2016-11-13T11:45:43.982Z,11153
2016-11-13T11:46:02.358Z,11151
2016-11-13T11:46:20.757Z,11196
2016-11-13T11:46:36.100Z,11230
2016-11-13T11:46:57.203Z,11268
2016-11-13T11:47:12.599Z,11258
2016-11-13T11:47:34.239Z,11266
2016-11-13T11:47:49.653Z,11205
2016-11-13T11:48:05.201Z,11250
2016-11-13T11:48:33.208Z,11246
2016-11-13T11:48:55.614Z,11216
2016-11-13T11:49:14.032Z,11263
2016-11-13T11:49:32.377Z,11157
2016-11-13T11:49:53.931Z,11221
2016-11-13T11:50:18.161Z,11254
2016-11-13T11:50:33.611Z,11261
2016-11-13T11:50:48.943Z,11313
2016-11-13T11:51:05.820Z,11460
2016-11-13T11:51:28.143Z,11380
2016-11-13T11:51:44.699Z,11290
2016-11-13T11:52:01.279Z,11318
2016-11-13T11:52:23.857Z,11303
2016-11-13T11:52:45.121Z,11328
2016-11-13T11:53:01.473Z,11311
2016-11-13T11:53:18.535Z,11336
2016-11-13T11:53:38.781Z,11400
2016-11-13T11:54:00.046Z,11455
2016-11-13T11:54:21.358Z,11508
2016-11-13T11:54:36.857Z,11481
2016-11-13T11:54:55.097Z,11481
2016-11-13T11:55:13.408Z,11493
2016-11-13T11:55:26.109Z,11466
2016-11-13T11:55:44.465Z,11538
2016-11-13T11:56:05.197Z,11565
2016-11-13T11:56:20.546Z,11627
2016-11-13T11:56:33.119Z,11633
2016-11-13T11:56:51.411Z,11695
2016-11-13T11:57:06.828Z,11685
2016-11-13T11:57:25.794Z,11560
2016-11-13T11:57:41.452Z,11580
2016-11-13T11:57:59.788Z,11688
2016-11-13T11:58:18.175Z,11732
2016-11-13T11:58:36.347Z,11750
2016-11-13T11:58:57.576Z,11732
2016-11-13T11:59:15.916Z,11655
2016-11-13T11:59:31.535Z,11630
2016-11-13T11:59:49.923Z,11653
2016-11-13T12:00:08.345Z,11631
2016-11-13T12:00:26.663Z,11720
2016-11-13T12:00:44.951Z,11753
2016-11-13T12:01:05.994Z,11767
2016-11-13T12:01:24.337Z,11753
2016-11-13T12:01:39.845Z,11653
2016-11-13T12:01:58.247Z,11641
2016-11-13T12:02:22.432Z,11884
2016-11-13T12:02:44.431Z,11982
2016-11-13T12:02:57.097Z,11937
2016-11-13T12:03:18.302Z,12002
2016-11-13T12:03:30.676Z,12012
2016-11-13T12:03:49.000Z,12031
2016-11-13T12:04:10.207Z,11964
2016-11-13T12:04:32.489Z,11964
2016-11-13T12:04:47.926Z,11982
2016-11-13T12:05:09.626Z,12044
2016-11-13T12:05:27.943Z,12091
2016-11-13T12:05:43.405Z,12087
2016-11-13T12:05:58.909Z,12067
2016-11-13T12:06:14.366Z,12076
2016-11-13T12:06:29.840Z,12123
2016-11-13T12:06:42.421Z,12151
2016-11-13T12:07:00.741Z,12149
2016-11-13T12:07:19.034Z,12204
2016-11-13T12:07:34.282Z,12068
2016-11-13T12:07:49.760Z,12122
2016-11-13T12:08:11.069Z,12189
2016-11-13T12:08:29.416Z,12273
2016-11-13T12:08:45.438Z,12281
2016-11-13T12:09:01.736Z,12361
2016-11-13T12:09:15.495Z,12299
2016-11-13T12:09:36.673Z,12281
2016-11-13T12:09:53.413Z,12323
2016-11-13T12:10:08.807Z,12376
2016-11-13T12:10:27.121Z,12465
2016-11-13T12:10:45.569Z,12580
2016-11-13T12:11:14.183Z,12607
2016-11-13T12:11:37.324Z,12592
2016-11-13T12:11:52.689Z,12608
2016-11-13T12:12:08.050Z,12637
2016-11-13T12:12:20.461Z,12635
2016-11-13T12:12:38.798Z,12744
2016-11-13T12:12:54.101Z,12865
2016-11-13T12:13:09.687Z,12747
2016-11-13T12:13:33.147Z,12824
2016-11-13T12:13:54.533Z,12788
2016-11-13T12:14:09.936Z,12862
2016-11-13T12:14:30.078Z,12859
2016-11-13T12:14:48.629Z,12805
2016-11-13T12:15:12.037Z,12840
2016-11-13T12:15:24.867Z,12857
2016-11-13T12:15:40.187Z,12829
2016-11-13T12:15:58.422Z,12859
2016-11-13T12:16:13.912Z,12815
2016-11-13T12:16:34.797Z,12877
2016-11-13T12:16:50.474Z,12917
2016-11-13T12:17:13.088Z,12760
2016-11-13T12:17:32.272Z,12560
2016-11-13T12:17:47.628Z,12634
2016-11-13T12:18:02.995Z,12773
2016-11-13T12:18:18.270Z,12781
2016-11-13T12:18:33.788Z,12738
2016-11-13T12:18:49.193Z,12697
2016-11-13T12:19:04.485Z,12581
2016-11-13T12:19:19.827Z,12450
2016-11-13T12:19:38.043Z,12542
2016-11-13T12:19:59.187Z,12653
2016-11-13T12:20:17.528Z,12849
2016-11-13T12:20:35.882Z,12975
2016-11-13T12:20:48.345Z,12964
2016-11-13T12:21:00.731Z,12944
2016-11-13T12:21:21.880Z,12889
2016-11-13T12:21:37.348Z,12899
2016-11-13T12:21:55.613Z,12922
2016-11-13T12:22:11.072Z,13046
2016-11-13T12:22:29.407Z,13147
2016-11-13T12:22:44.833Z,12989
2016-11-13T12:23:03.162Z,13109
2016-11-13T12:23:21.453Z,13102
2016-11-13T12:23:36.794Z,12980
2016-11-13T12:23:52.225Z,13147
2016-11-13T12:24:07.591Z,13090
2016-11-13T12:24:28.800Z,13186
2016-11-13T12:24:47.043Z,13187
2016-11-13T12:25:05.263Z,13169
2016-11-13T12:25:26.476Z,13054
2016-11-13T12:25:38.973Z,13047
2016-11-13T12:25:54.367Z,13099
2016-11-13T12:26:09.755Z,13144
2016-11-13T12:26:25.515Z,13096
2016-11-13T12:26:42.281Z,13059
2016-11-13T12:26:57.938Z,13024
2016-11-13T12:27:16.341Z,13009
2016-11-13T12:27:34.623Z,13037
2016-11-13T12:27:59.210Z,12978
2016-11-13T12:28:14.489Z,12810
2016-11-13T12:28:29.895Z,12581
2016-11-13T12:28:48.652Z,12591
2016-11-13T12:29:06.905Z,12802
2016-11-13T12:29:19.437Z,13057
2016-11-13T12:29:34.870Z,13119
2016-11-13T12:29:50.276Z,13126
2016-11-13T12:30:06.094Z,13144
2016-11-13T12:30:27.548Z,13131
2016-11-13T12:30:43.879Z,13121
2016-11-13T12:30:56.141Z,13194
2016-11-13T12:31:14.456Z,13228
2016-11-13T12:31:27.256Z,13192
2016-11-13T12:31:42.595Z,13112
2016-11-13T12:32:01.422Z,13328
2016-11-13T12:32:16.979Z,13228
2016-11-13T12:32:32.697Z,13211
2016-11-13T12:32:49.204Z,13231
2016-11-13T12:33:05.037Z,13301
2016-11-13T12:33:24.124Z,13176
2016-11-13T12:33:47.674Z,13318
2016-11-13T12:34:11.499Z,13264
2016-11-13T12:34:30.029Z,13316
2016-11-13T12:34:42.515Z,13323
2016-11-13T12:35:00.768Z,13296
2016-11-13T12:35:19.030Z,13366
2016-11-13T12:35:40.782Z,13412
2016-11-13T12:35:57.522Z,13475
2016-11-13T12:36:10.386Z,13438
2016-11-13T12:36:26.412Z,13447
2016-11-13T12:36:44.993Z,13437
2016-11-13T12:37:00.394Z,13468
2016-11-13T12:37:18.712Z,13533
2016-11-13T12:37:34.181Z,13613
2016-11-13T12:37:52.406Z,13595
2016-11-13T12:38:10.711Z,13550
2016-11-13T12:38:26.015Z,13578
2016-11-13T12:38:41.182Z,13498
2016-11-13T12:38:56.739Z,13506
2016-11-13T12:39:12.244Z,13595
2016-11-13T12:39:24.809Z,13577
2016-11-13T12:39:43.130Z,13542
2016-11-13T12:39:58.652Z,13595
2016-11-13T12:40:14.012Z,13585
2016-11-13T12:40:29.397Z,13603
2016-11-13T12:40:47.836Z,13568
2016-11-13T12:41:03.265Z,13577
2016-11-13T12:41:24.454Z,13522
2016-11-13T12:41:42.855Z,13647
2016-11-13T12:42:07.002Z,13844
2016-11-13T12:42:19.433Z,13754
2016-11-13T12:42:37.808Z,13871
2016-11-13T12:42:53.138Z,13807
2016-11-13T12:43:08.550Z,13772
2016-11-13T12:43:26.899Z,13727
2016-11-13T12:43:39.194Z,13754
2016-11-13T12:43:54.544Z,13745
2016-11-13T12:44:10.009Z,13836
2016-11-13T12:44:22.561Z,13809
2016-11-13T12:44:37.832Z,13829
2016-11-13T12:44:53.349Z,13804
2016-11-13T12:45:06.487Z,13780
2016-11-13T12:45:25.572Z,13762
2016-11-13T12:45:38.182Z,13815
2016-11-13T12:45:50.537Z,13800
2016-11-13T12:46:02.954Z,13750
2016-11-13T12:46:18.445Z,13740
2016-11-13T12:46:31.076Z,13837
2016-11-13T12:46:46.712Z,13807
2016-11-13T12:47:02.206Z,13912
2016-11-13T12:47:17.680Z,13785
2016-11-13T12:47:33.959Z,13972
2016-11-13T12:47:49.490Z,13971
2016-11-13T12:48:10.728Z,14051
2016-11-13T12:48:29.047Z,14088
2016-11-13T12:48:44.462Z,14096
2016-11-13T12:49:02.768Z,14113
2016-11-13T12:49:21.031Z,14114
2016-11-13T12:49:39.869Z,14055
2016-11-13T12:49:52.681Z,14158
2016-11-13T12:50:11.490Z,14274
2016-11-13T12:50:32.856Z,14098
2016-11-13T12:50:45.454Z,14081
2016-11-13T12:51:00.770Z,14160
2016-11-13T12:51:19.072Z,14185
2016-11-13T12:51:31.734Z,14267
2016-11-13T12:51:47.671Z,14168
2016-11-13T12:52:03.055Z,14106
2016-11-13T12:52:26.696Z,14125
2016-11-13T12:52:39.121Z,14177
2016-11-13T12:52:55.492Z,14198